Hoolehua, HI

10:15 AM HST on July 05, 2015 (GMT -1000)
Molokai | | Change Station
CLOSE
Current Station
Airport
Location: Molokai,
Elevation: 449 ft
Nearby Weather Stations
Active Advisory: High Surf Advisory Active Notice: Record Report

Elev 449 ft 21.15 °N, 157.10 °W | Updated 21 minutes ago

Partly Cloudy
Partly Cloudy
82 °F
Feels Like 85 °F
N
12
Wind Variable Wind from NNE
Gusts 24 mph

Today
High -- | Low -- °F
--% Chance of Precip.
Yesterday
High -- | Low -- °F
Precip. -- in
5:51 AM 7:14 PM
Waning Gibbous, 82% visible
Pressure 29.98 in
Visibility 10.0 miles
Clouds Few 3000 ft
Heat Index 85 °F
Dew Point 68 °F
Humidity 62%
Rainfall 0.00 in
Snow Depth Not available.
UV 8 out of 12
Pollen Not available.
Air Quality Not available.
Flu Activity Not available.
METAR PHMK 051954Z 02010G21KT 10SM FEW030 28/20 A2998 RMK AO2 SLP152 T02780200

More Conditions Fewer Conditions

Pressure 29.98 in
Visibility 10.0 miles
Clouds Few 3000 ft
Heat Index 85 °F
Dew Point 68 °F
Humidity 62%
Rainfall 0.00 in
Snow Depth Not available.
UV 8 out of 12
Pollen Not available.
Air Quality Not available.
Flu Activity Not available.
METAR PHMK 051954Z 02010G21KT 10SM FEW030 28/20 A2998 RMK AO2 SLP152 T02780200

More Conditions Fewer Conditions

10-Day Weather Forecast

×

Almanac

Astronomy

Jul. 05, 2015 Rise Set
Actual Time
Civil Twilight
Nautical Twilight
Astronomical Twilight
Moon
Length of Visible Light
Length of Day
Tomorrow will be .
, % of the Moon is Illuminated

Today's Extremes

State Highs State Lows

Community

WunderPhotos

Upload Photos

1,835,373 photos uploaded!

WunderBlogs® & News

Nearby

Air Quality

  Air Quality AQ Index Pollutant
Not available.

Snow Depth

Station Depth Elevation

Earthquake Activity

City Distance Mag. Time & Date
Minimum magnitude displayed is 2.5.

Coastal Water Temperatures

Place Temperature

Stations

Nearby Weather Stations

Station Location Temp. Windchill Dew Point Humidity Wind Precip. Elev Updated Type
                   
High Surf Advisory
Statement as of 3:31 AM HST on July 05, 2015

... High surf advisory remains in effect until 6 PM HST this
evening...

A high surf advisory remains in effect until 6 PM HST this
evening.

* Surf... 5 to 8 feet.

* Timing... through 6 PM HST today.

* Impacts... moderate... expect strong breaking waves... shore
break... and strong longshore and rip currents making swimming
difficult and dangerous.

Precautionary/preparedness actions...

Beachgoers... swimmers... and surfers should heed all advice given
by ocean safety officials and exercise caution. Boaters should
expect recreational surfers and body boarders utilizing Harbor
channels to access surfing areas.